Terminal Aerodrome Forecast
Issued by NWS Brownsville, TX

Home | Current Version | Previous Version | Text Only | Print | Product List | Glossary On
Versions: 1 2 3 4 5 6 7 8 9 10 11 12 13 14 15
240
FTUS44 KBRO 291120
TAFMFE
TAF
KMFE 291120Z 2912/3012 13005KT P6SM FEW030
     FM291400 14009G15KT P6SM SCT030
     FM291900 13012KT P6SM SCT050
     FM300200 13010KT P6SM FEW030
     FM300600 14008KT P6SM SCT250=

USA.gov is the U.S. government's official web portal to all federal, state and local government web resources and services.